This is the latest recevied weather packets stored in our database for station/object DM8MH-13. If no packets are shown the sender has not sent any weather packets the latest 10 day(s).
| Time | Temp. | Humidity | Pressure | Rain* | Wind** | Luminosity | Snow |
|---|---|---|---|---|---|---|---|
| 1788425469 | 18.89° C | 67% | 1017.8 hPa | 0 mm | - | 303 W/m² | - |
| 1788424870 | 18.33° C | 69% | 1017.9 hPa | 0 mm | - | 296 W/m² | - |
| 1788424271 | 18.33° C | 70% | 1018.2 hPa | 0 mm | - | 363 W/m² | - |
| 1788423671 | 17.78° C | 72% | 1018.2 hPa | 0 mm | - | 271 W/m² | - |
| 1788423069 | 16.67° C | 75% | 1018.5 hPa | 0 mm | - | 237 W/m² | - |
| 1788422469 | 16.67° C | 75% | 1018.6 hPa | 0 mm | - | 172 W/m² | - |
| 1788421869 | 16.67° C | 74% | 1018.6 hPa | 0 mm | - | 136 W/m² | - |
| 1788421270 | 16.67° C | 74% | 1018.6 hPa | 0 mm | - | 104 W/m² | - |
| 1788420671 | 16.67° C | 74% | 1018.5 hPa | 0 mm | - | 199 W/m² | - |
| 1788420071 | 16.11° C | 75% | 1018.5 hPa | 0 mm | - | 338 W/m² | - |
| 1788419470 | 16.11° C | 75% | 1018.5 hPa | 0 mm | - | 132 W/m² | - |
| 1788418871 | 16.11° C | 76% | 1018.4 hPa | 0 mm | - | 193 W/m² | - |
| 1788418270 | 15.56° C | 77% | 1018.4 hPa | 0 mm | - | 271 W/m² | - |
| 1788417670 | 15.56° C | 79% | 1018.6 hPa | 0 mm | - | 121 W/m² | - |
| 1788417071 | 15.56° C | 79% | 1018.6 hPa | 0 mm | - | 81 W/m² | - |
| 1788416471 | 15° C | 81% | 1018.5 hPa | 0 mm | - | 92 W/m² | - |
| 1788415869 | 14.44° C | 82% | 1018.6 hPa | 0 mm | - | 112 W/m² | - |
| 1788415270 | 14.44° C | 83% | 1018.8 hPa | 0 mm | - | 94 W/m² | - |
| 1788414670 | 14.44° C | 83% | 1018.7 hPa | 0 mm | - | 55 W/m² | - |
| 1788414069 | 14.44° C | 83% | 1019.1 hPa | 0 mm | - | 34 W/m² | - |
| 1788413470 | 13.89° C | 84% | 1019.2 hPa | 0 mm | - | 29 W/m² | - |
| 1788412870 | 13.89° C | 84% | 1019 hPa | 0 mm | - | 25 W/m² | - |
| 1788412271 | 13.89° C | 84% | 1018.9 hPa | 0 mm | - | 26 W/m² | - |
| 1788313873 | 13.33° C | 90% | 1020.3 hPa | 0 mm | - | 0 W/m² | - |
| 1788313272 | 13.89° C | 89% | 1020.2 hPa | 0 mm | - | 0 W/m² | - |
* Rain latest hour (hover to see other rain measurements)
** Current wind speed in m/s (hover to see current wind gust speed)